createdAt,value
2023-05-09T00:00:11.454Z,101801.22
2023-05-09T00:00:43.571Z,101799.66
2023-05-09T00:01:15.084Z,101797.69
2023-05-09T00:01:46.714Z,101802.41
2023-05-09T00:02:18.256Z,101801.59
2023-05-09T00:02:49.760Z,101800.03
2023-05-09T00:03:21.225Z,101792.56
2023-05-09T00:03:52.712Z,101795.72
2023-05-09T00:04:25.336Z,101796.50
2023-05-09T00:04:56.944Z,101795.72
2023-05-09T00:05:28.664Z,101801.59
2023-05-09T00:06:00.111Z,101792.56
2023-05-09T00:06:32.323Z,101789.03
2023-05-09T00:07:03.812Z,101794.50
2023-05-09T00:07:35.258Z,101789.41
2023-05-09T00:08:06.648Z,101790.97
2023-05-09T00:08:38.086Z,101789.41
2023-05-09T00:09:09.785Z,101789.41
2023-05-09T00:09:41.117Z,101787.03
2023-05-09T00:10:12.553Z,101792.16
2023-05-09T00:10:43.927Z,101787.03
2023-05-09T00:11:15.338Z,101785.84
2023-05-09T00:11:46.782Z,101783.09
2023-05-09T00:12:18.282Z,101787.81
2023-05-09T00:12:49.748Z,101788.19
2023-05-09T00:13:21.438Z,101788.19
2023-05-09T00:13:53.310Z,101785.84
2023-05-09T00:14:24.949Z,101788.19
2023-05-09T00:14:56.730Z,101787.00
2023-05-09T00:15:28.879Z,101788.19
2023-05-09T00:16:01.031Z,101786.22
2023-05-09T00:16:33.089Z,101784.25
2023-05-09T00:17:04.745Z,101792.50
2023-05-09T00:17:36.438Z,101781.91
2023-05-09T00:18:08.049Z,101784.66
2023-05-09T00:18:42.109Z,101783.84
2023-05-09T00:19:13.886Z,101784.66
2023-05-09T00:19:45.384Z,101780.72
2023-05-09T00:20:16.953Z,101788.97
2023-05-09T00:20:49.553Z,101785.44
2023-05-09T00:21:21.000Z,101794.47
2023-05-09T00:21:52.349Z,101781.91
2023-05-09T00:22:23.749Z,101779.94
2023-05-09T00:22:55.321Z,101779.16
2023-05-09T00:23:26.702Z,101777.19
2023-05-09T00:23:59.047Z,101785.44
2023-05-09T00:24:30.427Z,101779.16
2023-05-09T00:25:01.824Z,101776.81
2023-05-09T00:25:33.445Z,101775.63
2023-05-09T00:26:05.597Z,101786.59
2023-05-09T00:26:36.949Z,101779.56
2023-05-09T00:27:08.385Z,101784.28
2023-05-09T00:27:39.789Z,101781.53
2023-05-09T00:28:11.235Z,101780.72
2023-05-09T00:28:42.761Z,101781.91
2023-05-09T00:29:14.216Z,101778.38
2023-05-09T00:29:45.602Z,101777.59
2023-05-09T00:30:17.048Z,101790.53
2023-05-09T00:30:48.626Z,101776.00
2023-05-09T00:31:20.787Z,101781.50
2023-05-09T00:31:52.478Z,101781.50
2023-05-09T00:32:25.675Z,101787.00
2023-05-09T00:32:58.093Z,101777.97
2023-05-09T00:33:29.650Z,101775.22
2023-05-09T00:34:01.014Z,101778.34
2023-05-09T00:34:32.976Z,101781.09
2023-05-09T00:35:05.270Z,101784.63
2023-05-09T00:35:36.643Z,101783.06
2023-05-09T00:36:08.115Z,101785.81
2023-05-09T00:36:39.585Z,101781.47
2023-05-09T00:37:11.030Z,101785.38
2023-05-09T00:37:42.575Z,101782.66
2023-05-09T00:38:14.225Z,101783.81
2023-05-09T00:38:45.815Z,101784.59
2023-05-09T00:39:17.214Z,101785.78
2023-05-09T00:39:48.930Z,101785.78
2023-05-09T00:40:20.551Z,101780.28
2023-05-09T00:40:51.999Z,101774.00
2023-05-09T00:41:23.391Z,101775.97
2023-05-09T00:41:56.798Z,101775.97
2023-05-09T00:42:28.423Z,101777.13
2023-05-09T00:43:00.292Z,101774.38
2023-05-09T00:43:31.855Z,101772.81
2023-05-09T00:44:03.455Z,101770.84
2023-05-09T00:44:34.858Z,101767.31
2023-05-09T00:45:07.223Z,101772.81
2023-05-09T00:45:38.697Z,101776.72
2023-05-09T00:46:10.304Z,101778.69
2023-05-09T00:46:41.777Z,101772.00
2023-05-09T00:47:13.231Z,101768.47
2023-05-09T00:47:44.738Z,101777.50
2023-05-09T00:48:17.015Z,101773.19
2023-05-09T00:48:48.447Z,101776.72
2023-05-09T00:49:20.096Z,101768.47
2023-05-09T00:49:51.559Z,101773.19
2023-05-09T00:50:24.085Z,101765.72
2023-05-09T00:50:55.504Z,101764.16
2023-05-09T00:51:28.524Z,101767.69
2023-05-09T00:52:01.216Z,101761.41
2023-05-09T00:52:33.234Z,101764.16
2023-05-09T00:53:04.987Z,101765.31
2023-05-09T00:53:36.445Z,101761.41
2023-05-09T00:54:09.214Z,101758.66
2023-05-09T00:54:40.791Z,101762.59
2023-05-09T00:55:13.524Z,101755.50
2023-05-09T00:55:45.579Z,101766.50
2023-05-09T00:56:17.141Z,101761.78
2023-05-09T00:56:48.588Z,101759.06
2023-05-09T00:57:20.604Z,101763.75
2023-05-09T00:57:52.023Z,101769.25
2023-05-09T00:58:23.915Z,101762.19
2023-05-09T00:58:55.743Z,101762.19
2023-05-09T00:59:27.513Z,101762.97
2023-05-09T00:59:59.812Z,101776.69
2023-05-09T01:00:31.338Z,101770.41
2023-05-09T01:01:03.757Z,101766.91
2023-05-09T01:01:35.447Z,101768.47
2023-05-09T01:02:06.969Z,101764.91
2023-05-09T01:02:53.066Z,101766.50
2023-05-09T01:03:24.976Z,101759.44
2023-05-09T01:03:56.626Z,101763.38
2023-05-09T01:04:28.240Z,101761.81
2023-05-09T01:04:59.698Z,101764.53
2023-05-09T01:05:43.850Z,101761.81
2023-05-09T01:06:21.332Z,101761.81
2023-05-09T01:07:06.362Z,101762.97
2023-05-09T01:08:00.335Z,101756.69
2023-05-09T01:08:43.186Z,101752.38
2023-05-09T01:09:24.839Z,101753.53
2023-05-09T01:10:23.188Z,101747.25
2023-05-09T01:11:11.637Z,101743.34
2023-05-09T01:11:56.848Z,101739.03
2023-05-09T01:12:41.294Z,101741.75
2023-05-09T01:13:27.342Z,101739.41
2023-05-09T01:14:20.432Z,101738.63
2023-05-09T01:15:08.448Z,101739.41
2023-05-09T01:15:46.874Z,101741.34
2023-05-09T01:16:36.910Z,101729.97
2023-05-09T01:17:17.169Z,101739.00
2023-05-09T01:17:55.587Z,101736.63
2023-05-09T01:18:33.343Z,101731.94
2023-05-09T01:19:36.583Z,101732.31
2023-05-09T01:20:34.498Z,101726.81
2023-05-09T01:21:11.237Z,101729.56
2023-05-09T01:21:47.686Z,101733.47
2023-05-09T01:22:23.839Z,101733.47
2023-05-09T01:23:15.448Z,101726.81
2023-05-09T01:24:04.510Z,101731.53
2023-05-09T01:24:54.466Z,101724.84
2023-05-09T01:25:37.704Z,101722.47
2023-05-09T01:26:42.186Z,101722.47
2023-05-09T01:27:38.198Z,101723.63
2023-05-09T01:28:19.040Z,101721.28
2023-05-09T01:29:09.139Z,101723.25
2023-05-09T01:29:44.862Z,101720.91
2023-05-09T01:30:17.555Z,101722.06
2023-05-09T01:30:53.213Z,101717.75
2023-05-09T01:31:26.931Z,101713.84
2023-05-09T01:32:01.795Z,101713.84
2023-05-09T01:32:37.984Z,101716.56
2023-05-09T01:33:13.711Z,101716.56
2023-05-09T01:33:48.634Z,101715.00
2023-05-09T01:34:22.492Z,101713.44
2023-05-09T01:34:59.227Z,101707.16
2023-05-09T01:35:33.143Z,101709.88
2023-05-09T01:36:09.629Z,101710.69
2023-05-09T01:36:43.996Z,101705.97
2023-05-09T01:37:17.052Z,101715.00
2023-05-09T01:37:50.408Z,101707.94
2023-05-09T01:38:25.540Z,101717.75
2023-05-09T01:38:59.075Z,101707.94
2023-05-09T01:39:32.801Z,101712.63
2023-05-09T01:40:08.352Z,101712.25
2023-05-09T01:40:42.478Z,101707.94
2023-05-09T01:41:16.848Z,101712.63
2023-05-09T01:41:49.869Z,101705.97
2023-05-09T01:42:22.332Z,101711.47
2023-05-09T01:43:06.941Z,101714.59
2023-05-09T01:43:40.569Z,101709.88
2023-05-09T01:44:13.721Z,101714.59
2023-05-09T01:44:47.050Z,101713.00
2023-05-09T01:45:19.992Z,101714.19
2023-05-09T01:45:52.845Z,101717.72
2023-05-09T01:46:25.812Z,101708.69
2023-05-09T01:46:59.313Z,101716.16
2023-05-09T01:47:31.151Z,101708.28
2023-05-09T01:48:04.262Z,101706.34
2023-05-09T01:48:37.741Z,101707.50
2023-05-09T01:49:10.854Z,101711.03
2023-05-09T01:49:44.425Z,101705.53
2023-05-09T01:50:18.829Z,101706.72
2023-05-09T01:50:50.411Z,101701.22
2023-05-09T01:51:22.852Z,101701.22
2023-05-09T01:51:55.411Z,101703.97
2023-05-09T01:52:27.607Z,101701.22
2023-05-09T01:53:01.251Z,101696.91
2023-05-09T01:53:34.388Z,101702.00
2023-05-09T01:54:06.586Z,101702.00
2023-05-09T01:54:40.163Z,101701.22
2023-05-09T01:55:12.637Z,101696.53
2023-05-09T01:55:47.050Z,101701.22
2023-05-09T01:56:18.989Z,101697.69
2023-05-09T01:56:51.350Z,101705.91
2023-05-09T01:57:24.705Z,101701.22
2023-05-09T01:57:58.838Z,101699.66
2023-05-09T01:58:33.704Z,101705.13
2023-05-09T01:59:07.464Z,101700.44
2023-05-09T01:59:41.984Z,101702.38
2023-05-09T02:00:15.119Z,101704.34
2023-05-09T02:00:48.700Z,101704.34
2023-05-09T02:01:21.355Z,101702.78
2023-05-09T02:01:55.099Z,101696.50
2023-05-09T02:02:28.403Z,101700.03
2023-05-09T02:03:01.678Z,101693.75
2023-05-09T02:03:34.649Z,101694.91
2023-05-09T02:04:06.262Z,101698.44
2023-05-09T02:04:40.549Z,101701.19
2023-05-09T02:05:14.311Z,101700.41
2023-05-09T02:05:48.205Z,101691.38
2023-05-09T02:06:22.037Z,101696.09
2023-05-09T02:06:54.103Z,101693.34
2023-05-09T02:07:29.374Z,101700.78
2023-05-09T02:08:01.285Z,101692.56
2023-05-09T02:08:33.111Z,101693.34
2023-05-09T02:09:04.820Z,101696.09
2023-05-09T02:09:36.319Z,101696.09
2023-05-09T02:10:09.677Z,101686.28
2023-05-09T02:10:42.510Z,101692.56
2023-05-09T02:11:13.939Z,101687.06
2023-05-09T02:11:45.656Z,101691.78
2023-05-09T02:12:17.153Z,101685.13
2023-05-09T02:12:48.727Z,101686.28
2023-05-09T02:13:20.400Z,101690.97
2023-05-09T02:13:51.871Z,101688.25
2023-05-09T02:14:23.315Z,101688.63
2023-05-09T02:14:54.693Z,101688.63
2023-05-09T02:15:26.693Z,101691.78
2023-05-09T02:15:58.846Z,101684.31
2023-05-09T02:16:30.311Z,101683.53
2023-05-09T02:17:06.913Z,101685.13
2023-05-09T02:17:39.145Z,101689.81
2023-05-09T02:18:10.922Z,101682.38
2023-05-09T02:18:42.362Z,101688.63
2023-05-09T02:19:13.840Z,101682.38
2023-05-09T02:19:45.565Z,101684.31
2023-05-09T02:20:17.016Z,101687.84
2023-05-09T02:20:48.728Z,101683.53
2023-05-09T02:21:20.477Z,101683.53
2023-05-09T02:21:51.870Z,101682.75
2023-05-09T02:22:24.209Z,101683.53
2023-05-09T02:22:55.642Z,101681.97
2023-05-09T02:23:27.673Z,101677.25
2023-05-09T02:23:59.172Z,101675.31
2023-05-09T02:24:32.673Z,101681.97
2023-05-09T02:25:07.574Z,101672.94
2023-05-09T02:25:40.583Z,101674.88
2023-05-09T02:26:12.658Z,101669.38
2023-05-09T02:26:44.193Z,101668.59
2023-05-09T02:27:16.084Z,101678.00
2023-05-09T02:27:47.587Z,101667.00
2023-05-09T02:28:21.044Z,101671.72
2023-05-09T02:28:53.586Z,101674.47
2023-05-09T02:29:38.480Z,101676.41
2023-05-09T02:30:15.164Z,101670.94
2023-05-09T02:30:49.776Z,101673.66
2023-05-09T02:31:23.996Z,101666.59
2023-05-09T02:31:56.845Z,101669.34
2023-05-09T02:32:32.168Z,101668.94
2023-05-09T02:33:07.367Z,101671.28
2023-05-09T02:33:39.575Z,101669.69
2023-05-09T02:34:11.567Z,101666.97
2023-05-09T02:34:45.679Z,101666.97
2023-05-09T02:35:18.538Z,101663.06
2023-05-09T02:35:51.345Z,101668.53
2023-05-09T02:36:24.372Z,101668.53
2023-05-09T02:36:55.892Z,101668.53
2023-05-09T02:37:28.154Z,101667.75
2023-05-09T02:38:00.643Z,101665.38
2023-05-09T02:38:32.585Z,101670.88
2023-05-09T02:39:04.058Z,101666.56
2023-05-09T02:39:36.353Z,101670.09
2023-05-09T02:40:11.878Z,101670.88
2023-05-09T02:40:44.894Z,101668.13
2023-05-09T02:41:16.709Z,101667.34
2023-05-09T02:41:49.551Z,101668.13
2023-05-09T02:42:24.976Z,101666.56
2023-05-09T02:42:57.283Z,101662.63
2023-05-09T02:43:28.645Z,101668.91
2023-05-09T02:44:00.036Z,101660.28
2023-05-09T02:44:31.508Z,101663.03
2023-05-09T02:45:03.411Z,101665.38
2023-05-09T02:45:35.151Z,101665.75
2023-05-09T02:46:07.711Z,101672.03
2023-05-09T02:46:39.121Z,101668.88
2023-05-09T02:47:10.516Z,101666.94
2023-05-09T02:47:42.190Z,101666.94
2023-05-09T02:48:13.736Z,101675.16
2023-05-09T02:48:45.269Z,101667.31
2023-05-09T02:49:30.891Z,101669.69
2023-05-09T02:50:04.573Z,101665.34
2023-05-09T02:50:38.401Z,101668.09
2023-05-09T02:51:09.917Z,101666.16
2023-05-09T02:51:41.325Z,101670.06
2023-05-09T02:52:12.695Z,101672.81
2023-05-09T02:52:44.491Z,101661.81
2023-05-09T02:53:15.901Z,101661.03
2023-05-09T02:53:47.331Z,101664.94
2023-05-09T02:54:18.670Z,101666.91
2023-05-09T02:54:50.115Z,101664.94
2023-05-09T02:55:21.966Z,101661.41
2023-05-09T02:55:53.882Z,101664.16
2023-05-09T02:56:25.340Z,101657.91
2023-05-09T02:56:56.732Z,101662.22
2023-05-09T02:57:28.056Z,101662.22
2023-05-09T02:58:12.562Z,101653.97
2023-05-09T02:58:50.852Z,101662.22
2023-05-09T02:59:22.337Z,101664.16
2023-05-09T02:59:53.688Z,101650.06
2023-05-09T03:00:26.124Z,101656.34
2023-05-09T03:00:57.559Z,101650.84
2023-05-09T03:01:29.033Z,101659.88
2023-05-09T03:02:00.634Z,101657.13
2023-05-09T03:02:32.086Z,101658.28
2023-05-09T03:03:03.615Z,101654.38
2023-05-09T03:03:35.321Z,101653.59
2023-05-09T03:04:06.904Z,101655.56
2023-05-09T03:04:38.410Z,101654.38
2023-05-09T03:05:09.773Z,101650.84
2023-05-09T03:05:41.161Z,101652.81
2023-05-09T03:06:12.654Z,101650.06
2023-05-09T03:06:44.318Z,101650.84
2023-05-09T03:07:15.756Z,101658.28
2023-05-09T03:07:47.428Z,101643.78
2023-05-09T03:08:18.832Z,101652.81
2023-05-09T03:08:50.348Z,101651.22
2023-05-09T03:09:21.714Z,101648.50
2023-05-09T03:09:53.219Z,101650.06
2023-05-09T03:10:24.608Z,101645.75
2023-05-09T03:10:56.222Z,101643.00
2023-05-09T03:11:27.709Z,101645.75
2023-05-09T03:11:59.165Z,101643.00
2023-05-09T03:12:30.678Z,101639.47
2023-05-09T03:13:02.080Z,101642.22
2023-05-09T03:13:33.549Z,101645.75
2023-05-09T03:14:05.348Z,101643.38
2023-05-09T03:14:36.742Z,101644.97
2023-05-09T03:15:08.921Z,101637.13
2023-05-09T03:15:40.427Z,101645.72
2023-05-09T03:16:13.826Z,101639.06
2023-05-09T03:16:45.256Z,101639.06
2023-05-09T03:17:21.013Z,101638.28
2023-05-09T03:17:52.395Z,101638.28
2023-05-09T03:18:23.930Z,101641.03
2023-05-09T03:18:55.676Z,101636.31
2023-05-09T03:19:27.472Z,101639.84
2023-05-09T03:19:59.166Z,101634.75
2023-05-09T03:20:31.349Z,101635.53
2023-05-09T03:21:02.872Z,101642.97
2023-05-09T03:21:34.317Z,101632.78
2023-05-09T03:22:05.801Z,101630.06
2023-05-09T03:22:37.410Z,101633.59
2023-05-09T03:23:09.991Z,101632.00
2023-05-09T03:23:41.533Z,101635.13
2023-05-09T03:24:13.033Z,101628.84
2023-05-09T03:24:44.432Z,101628.84
2023-05-09T03:25:16.847Z,101635.13
2023-05-09T03:25:48.456Z,101633.56
2023-05-09T03:26:19.851Z,101621.78
2023-05-09T03:26:51.164Z,101630.41
2023-05-09T03:27:22.517Z,101621.38
2023-05-09T03:27:53.879Z,101619.44
2023-05-09T03:28:25.707Z,101629.63
2023-05-09T03:28:57.061Z,101620.59
2023-05-09T03:29:28.458Z,101623.75
2023-05-09T03:30:00.050Z,101617.47
2023-05-09T03:30:31.464Z,101620.59
2023-05-09T03:31:02.847Z,101619.44
2023-05-09T03:31:34.579Z,101621.38
2023-05-09T03:32:06.260Z,101619.81
2023-05-09T03:32:37.696Z,101616.28
2023-05-09T03:33:09.179Z,101618.66
2023-05-09T03:33:40.802Z,101620.59
2023-05-09T03:34:15.125Z,101616.69
2023-05-09T03:34:46.918Z,101615.13
2023-05-09T03:35:18.624Z,101612.78
2023-05-09T03:35:50.243Z,101614.72
2023-05-09T03:36:22.054Z,101609.25
2023-05-09T03:36:53.435Z,101609.25
2023-05-09T03:37:26.891Z,101607.66
2023-05-09T03:37:58.703Z,101603.75
2023-05-09T03:38:30.296Z,101606.09
2023-05-09T03:39:01.630Z,101602.56
2023-05-09T03:39:33.064Z,101599.81
2023-05-09T03:40:05.027Z,101604.53
2023-05-09T03:40:37.582Z,101601.78
2023-05-09T03:41:09.617Z,101593.56
2023-05-09T03:41:41.798Z,101595.13
2023-05-09T03:42:13.239Z,101595.13
2023-05-09T03:42:44.973Z,101595.13
2023-05-09T03:43:16.718Z,101595.91
2023-05-09T03:43:48.159Z,101593.97
2023-05-09T03:44:19.542Z,101591.59
2023-05-09T03:44:51.041Z,101588.84
2023-05-09T03:45:22.546Z,101595.91
2023-05-09T03:45:54.301Z,101593.56
2023-05-09T03:46:26.127Z,101584.91
2023-05-09T03:46:57.604Z,101582.97
2023-05-09T03:47:29.071Z,101583.34
2023-05-09T03:48:00.537Z,101588.81
2023-05-09T03:48:31.964Z,101585.28
2023-05-09T03:49:04.393Z,101582.56
2023-05-09T03:49:36.216Z,101587.25
2023-05-09T03:50:08.496Z,101584.13
2023-05-09T03:50:39.886Z,101584.13
2023-05-09T03:51:11.235Z,101582.19
2023-05-09T03:51:42.710Z,101579.44
2023-05-09T03:52:14.197Z,101577.47
2023-05-09T03:52:45.616Z,101582.97
2023-05-09T03:53:17.098Z,101583.75
2023-05-09T03:53:49.303Z,101578.66
2023-05-09T03:54:20.966Z,101577.84
2023-05-09T03:54:52.315Z,101578.66
2023-05-09T03:55:23.912Z,101573.16
2023-05-09T03:55:55.346Z,101570.81
2023-05-09T03:56:26.748Z,101570.00
2023-05-09T03:56:58.219Z,101575.50
2023-05-09T03:57:29.792Z,101574.72
2023-05-09T03:58:01.223Z,101571.19
2023-05-09T03:58:32.672Z,101573.91
2023-05-09T03:59:04.078Z,101566.91
2023-05-09T03:59:35.610Z,101573.91
2023-05-09T04:00:08.170Z,101566.47
2023-05-09T04:00:40.693Z,101568.44
2023-05-09T04:01:12.153Z,101573.91
2023-05-09T04:01:43.607Z,101572.38
2023-05-09T04:02:15.049Z,101566.47
2023-05-09T04:02:46.571Z,101567.66
2023-05-09T04:03:18.288Z,101570.00
2023-05-09T04:03:50.596Z,101567.28
2023-05-09T04:04:22.217Z,101564.53
2023-05-09T04:04:53.878Z,101566.09
2023-05-09T04:05:27.006Z,101567.28
2023-05-09T04:05:58.569Z,101566.47
2023-05-09T04:06:30.643Z,101568.06
2023-05-09T04:07:02.072Z,101566.47
2023-05-09T04:07:33.542Z,101563.75
2023-05-09T04:08:05.206Z,101569.22
2023-05-09T04:08:36.613Z,101561.78
2023-05-09T04:09:08.031Z,101563.75
2023-05-09T04:09:39.773Z,101564.53
2023-05-09T04:10:11.821Z,101556.31
2023-05-09T04:10:43.248Z,101562.56
2023-05-09T04:11:14.738Z,101559.84
2023-05-09T04:11:46.662Z,101561.78
2023-05-09T04:12:18.042Z,101563.38
2023-05-09T04:12:49.441Z,101564.53
2023-05-09T04:13:20.900Z,101561.78
2023-05-09T04:13:52.337Z,101561.00
2023-05-09T04:14:23.697Z,101567.66
2023-05-09T04:14:55.098Z,101564.91
2023-05-09T04:15:26.621Z,101568.44
2023-05-09T04:15:58.012Z,101571.19
2023-05-09T04:16:30.640Z,101572.38
2023-05-09T04:17:02.279Z,101565.31
2023-05-09T04:17:33.918Z,101570.81
2023-05-09T04:18:06.067Z,101568.84
2023-05-09T04:18:39.873Z,101570.00
2023-05-09T04:19:11.300Z,101564.16
2023-05-09T04:19:42.710Z,101565.31
2023-05-09T04:20:14.340Z,101566.91
2023-05-09T04:20:46.425Z,101565.31
2023-05-09T04:21:17.827Z,101568.06
2023-05-09T04:21:49.539Z,101569.63
2023-05-09T04:22:21.043Z,101568.84
2023-05-09T04:22:52.424Z,101569.22
2023-05-09T04:23:23.986Z,101571.19
2023-05-09T04:23:55.703Z,101569.22
2023-05-09T04:24:27.192Z,101571.59
2023-05-09T04:24:58.617Z,101570.81
2023-05-09T04:25:31.448Z,101570.00
2023-05-09T04:26:03.323Z,101566.09
2023-05-09T04:26:38.360Z,101562.19
2023-05-09T04:27:09.864Z,101570.81
2023-05-09T04:27:41.246Z,101559.03
2023-05-09T04:28:12.622Z,101579.03
2023-05-09T04:28:44.227Z,101571.97
2023-05-09T04:29:15.694Z,101568.44
2023-05-09T04:29:47.099Z,101563.75
2023-05-09T04:30:18.715Z,101566.88
2023-05-09T04:30:50.282Z,101569.59
2023-05-09T04:31:23.121Z,101566.47
2023-05-09T04:31:54.787Z,101570.00
2023-05-09T04:32:27.383Z,101572.34
2023-05-09T04:32:58.792Z,101567.66
2023-05-09T04:33:30.669Z,101569.59
2023-05-09T04:34:02.175Z,101566.06
2023-05-09T04:34:33.737Z,101566.06
2023-05-09T04:35:06.450Z,101566.06
2023-05-09T04:35:38.643Z,101561.38
2023-05-09T04:36:10.537Z,101562.97
2023-05-09T04:36:42.023Z,101568.44
2023-05-09T04:37:13.441Z,101565.69
2023-05-09T04:37:45.429Z,101560.22
2023-05-09T04:38:16.803Z,101566.88
2023-05-09T04:38:48.538Z,101560.22
2023-05-09T04:39:19.944Z,101557.84
2023-05-09T04:39:51.345Z,101556.69
2023-05-09T04:40:24.342Z,101557.47
2023-05-09T04:40:56.947Z,101564.91
2023-05-09T04:41:28.596Z,101562.16
2023-05-09T04:42:00.325Z,101558.63
2023-05-09T04:42:35.043Z,101555.50
2023-05-09T04:43:06.514Z,101558.25
2023-05-09T04:43:38.689Z,101554.72
2023-05-09T04:44:10.735Z,101556.69
2023-05-09T04:44:42.446Z,101549.63
2023-05-09T04:45:14.462Z,101555.09
2023-05-09T04:45:46.681Z,101553.94
2023-05-09T04:46:18.201Z,101555.50
2023-05-09T04:46:50.647Z,101556.31
2023-05-09T04:47:22.539Z,101547.28
2023-05-09T04:47:54.112Z,101550.44
2023-05-09T04:48:25.640Z,101540.63
2023-05-09T04:48:57.038Z,101542.22
2023-05-09T04:49:28.384Z,101544.16
2023-05-09T04:49:59.801Z,101546.91
2023-05-09T04:50:31.310Z,101551.59
2023-05-09T04:51:02.686Z,101547.69
2023-05-09T04:51:34.000Z,101546.91
2023-05-09T04:52:05.491Z,101543.00
2023-05-09T04:52:36.883Z,101544.94
2023-05-09T04:53:08.323Z,101544.56
2023-05-09T04:53:39.700Z,101541.81
2023-05-09T04:54:11.130Z,101544.56
2023-05-09T04:54:42.573Z,101544.16
2023-05-09T04:55:14.273Z,101544.16
2023-05-09T04:55:46.062Z,101537.88
2023-05-09T04:56:17.502Z,101537.88
2023-05-09T04:56:50.625Z,101542.19
2023-05-09T04:57:22.257Z,101545.72
2023-05-09T04:57:53.680Z,101537.50
2023-05-09T04:58:26.506Z,101532.00
2023-05-09T04:58:58.075Z,101540.22
2023-05-09T04:59:29.391Z,101541.03
2023-05-09T05:00:00.781Z,101529.25
2023-05-09T05:00:32.317Z,101528.47
2023-05-09T05:01:05.386Z,101533.97
2023-05-09T05:01:36.847Z,101528.47
2023-05-09T05:02:08.424Z,101529.25
2023-05-09T05:02:39.861Z,101538.28
2023-05-09T05:03:11.518Z,101524.97
2023-05-09T05:03:42.914Z,101529.66
2023-05-09T05:04:15.337Z,101530.47
2023-05-09T05:04:46.920Z,101530.47
2023-05-09T05:05:24.655Z,101535.16
2023-05-09T05:05:56.776Z,101526.94
2023-05-09T05:06:28.278Z,101528.50
2023-05-09T05:06:59.623Z,101537.91
2023-05-09T05:07:31.038Z,101540.25
2023-05-09T05:08:02.530Z,101539.47
2023-05-09T05:08:33.958Z,101534.78
2023-05-09T05:09:05.756Z,101533.97
2023-05-09T05:09:37.205Z,101528.50
2023-05-09T05:10:09.133Z,101533.56
2023-05-09T05:10:40.518Z,101527.31
2023-05-09T05:11:11.958Z,101531.63
2023-05-09T05:11:57.073Z,101522.59
2023-05-09T05:12:31.284Z,101520.66
2023-05-09T05:13:02.710Z,101525.75
2023-05-09T05:13:34.162Z,101529.28
2023-05-09T05:14:05.599Z,101523.00
2023-05-09T05:14:37.057Z,101527.31
2023-05-09T05:15:09.090Z,101526.16
2023-05-09T05:15:41.132Z,101527.34
2023-05-09T05:16:12.599Z,101519.91
2023-05-09T05:16:43.955Z,101526.19
2023-05-09T05:17:17.132Z,101519.13
2023-05-09T05:17:48.703Z,101521.88
2023-05-09T05:18:20.162Z,101519.13
2023-05-09T05:18:51.593Z,101523.44
2023-05-09T05:19:23.198Z,101519.91
2023-05-09T05:19:55.210Z,101512.84
2023-05-09T05:20:26.812Z,101511.28
2023-05-09T05:20:58.200Z,101512.06
2023-05-09T05:21:29.645Z,101503.44
2023-05-09T05:22:01.482Z,101514.03
2023-05-09T05:22:32.973Z,101502.66
2023-05-09T05:23:04.345Z,101499.13
2023-05-09T05:23:35.901Z,101508.16
2023-05-09T05:24:07.499Z,101497.19
2023-05-09T05:24:38.909Z,101499.94
2023-05-09T05:25:10.580Z,101497.97
2023-05-09T05:25:42.016Z,101504.66
2023-05-09T05:26:13.410Z,101503.47
2023-05-09T05:26:45.466Z,101501.53
2023-05-09T05:27:16.952Z,101499.56
2023-05-09T05:27:48.324Z,101507.78
2023-05-09T05:28:19.674Z,101498.78
2023-05-09T05:28:55.349Z,101498.41
2023-05-09T05:29:27.785Z,101495.66
2023-05-09T05:29:59.372Z,101498.03
2023-05-09T05:30:32.801Z,101500.34
2023-05-09T05:31:05.545Z,101501.16
2023-05-09T05:31:37.010Z,101493.31
2023-05-09T05:32:08.605Z,101494.09
2023-05-09T05:32:40.152Z,101492.94
2023-05-09T05:33:11.855Z,101489.41
2023-05-09T05:33:43.283Z,101490.97
2023-05-09T05:34:16.613Z,101490.97
2023-05-09T05:34:48.056Z,101489.41
2023-05-09T05:35:22.591Z,101489.41
2023-05-09T05:35:54.252Z,101487.44
2023-05-09T05:36:26.001Z,101487.06
2023-05-09T05:36:57.452Z,101484.72
2023-05-09T05:37:29.327Z,101489.03
2023-05-09T05:38:00.932Z,101489.03
2023-05-09T05:38:32.279Z,101491.38
2023-05-09T05:39:03.626Z,101487.44
2023-05-09T05:39:35.064Z,101487.06
2023-05-09T05:40:07.436Z,101489.41
2023-05-09T05:40:38.969Z,101483.16
2023-05-09T05:41:11.331Z,101487.47
2023-05-09T05:41:42.735Z,101488.25
2023-05-09T05:42:14.175Z,101488.63
2023-05-09T05:42:46.749Z,101483.94
2023-05-09T05:43:18.527Z,101486.28
2023-05-09T05:43:51.061Z,101487.88
2023-05-09T05:44:23.482Z,101483.56
2023-05-09T05:44:54.837Z,101486.72
2023-05-09T05:45:26.696Z,101483.63
2023-05-09T05:45:58.058Z,101485.97
2023-05-09T05:46:29.498Z,101480.50
2023-05-09T05:47:00.859Z,101488.31
2023-05-09T05:47:35.941Z,101490.28
2023-05-09T05:48:08.087Z,101486.38
2023-05-09T05:48:39.507Z,101482.44
2023-05-09T05:49:10.854Z,101481.28
2023-05-09T05:49:42.215Z,101484.81
2023-05-09T05:50:13.913Z,101482.47
2023-05-09T05:50:46.132Z,101481.28
2023-05-09T05:51:17.473Z,101482.47
2023-05-09T05:51:49.045Z,101480.53
2023-05-09T05:52:20.706Z,101482.09
2023-05-09T05:52:52.115Z,101481.69
2023-05-09T05:53:23.505Z,101480.53
2023-05-09T05:53:54.915Z,101479.34
2023-05-09T05:54:26.565Z,101471.13
2023-05-09T05:54:58.001Z,101481.72
2023-05-09T05:55:29.552Z,101478.56
2023-05-09T05:56:01.148Z,101474.63
2023-05-09T05:56:32.520Z,101470.72
2023-05-09T05:57:04.079Z,101469.53
2023-05-09T05:57:35.609Z,101468.38
2023-05-09T05:58:07.051Z,101468.78
2023-05-09T05:58:38.424Z,101468.78
2023-05-09T05:59:12.559Z,101469.56
2023-05-09T05:59:47.819Z,101470.75
2023-05-09T06:00:20.727Z,101466.81
2023-05-09T06:00:52.849Z,101468.00
2023-05-09T06:01:24.246Z,101469.59
2023-05-09T06:01:55.655Z,101465.25
2023-05-09T06:02:27.351Z,101466.84
2023-05-09T06:02:58.876Z,101467.63
2023-05-09T06:03:30.824Z,101468.78
2023-05-09T06:04:02.367Z,101466.06
2023-05-09T06:04:33.781Z,101467.63
2023-05-09T06:05:07.045Z,101464.88
2023-05-09T06:05:38.565Z,101468.03
2023-05-09T06:06:10.394Z,101466.44
2023-05-09T06:06:41.892Z,101469.19
2023-05-09T06:07:14.047Z,101463.69
2023-05-09T06:07:45.602Z,101469.97
2023-05-09T06:08:16.979Z,101460.97
2023-05-09T06:08:52.510Z,101468.03
2023-05-09T06:09:23.929Z,101462.53
2023-05-09T06:09:55.887Z,101470.38
2023-05-09T06:10:27.456Z,101467.63
2023-05-09T06:11:00.775Z,101471.56
2023-05-09T06:11:32.180Z,101468.81
2023-05-09T06:12:03.854Z,101463.69
2023-05-09T06:12:35.519Z,101466.06
2023-05-09T06:13:07.190Z,101465.28
2023-05-09T06:13:38.654Z,101463.31
2023-05-09T06:14:10.043Z,101459.78
2023-05-09T06:14:41.451Z,101466.84